Germfask, Michigan
Current Conditions -  °F | °C
As of 7:15 AM on Tuesday 27 Jan 2015 (Local Time) from KISQ Reporting Station
Clear Clear  
Wind Chill: -3°   Ceiling: Unl
Heat Index:   Visibility: 10mi
Dew Point:   Wind: 5mph
Humidity: 84%   Direction: 50°NE
Pressure: 30.16"   Gusts: NA
Location:  46.25°N, 85.93°W
Report Text: KISQ 271215Z AUTO 05004KT 10SM CLR M14/M16 A3016 RMK AO2 T11431165
Loading
Personal Weather Stations






























Interactive Weather Map New forecast layout! Learn more

10-Day Weather Forecast

Advertisements
Track Severe Weather on mobile